createdAt,value
2018-07-20T00:02:54.112Z,21.60
2018-07-20T00:05:22.575Z,21.60
2018-07-20T00:07:51.677Z,21.50
2018-07-20T00:10:20.140Z,21.50
2018-07-20T00:12:48.568Z,21.50
2018-07-20T00:15:17.008Z,21.50
2018-07-20T00:17:45.453Z,21.40
2018-07-20T00:20:13.883Z,21.40
2018-07-20T00:22:42.330Z,21.40
2018-07-20T00:25:10.764Z,21.30
2018-07-20T00:30:07.344Z,21.20
2018-07-20T00:32:35.781Z,21.20
2018-07-20T00:35:04.288Z,21.10
2018-07-20T00:40:00.847Z,21.10
2018-07-20T00:42:29.275Z,21.10
2018-07-20T00:44:57.747Z,21.00
2018-07-20T00:47:26.184Z,21.00
2018-07-20T00:52:22.792Z,20.90
2018-07-20T00:54:51.244Z,20.80
2018-07-20T00:57:19.700Z,20.90
2018-07-20T00:59:48.124Z,20.80
2018-07-20T01:02:16.567Z,20.70
2018-07-20T01:04:44.992Z,20.70
2018-07-20T01:07:13.445Z,20.70
2018-07-20T01:09:41.915Z,20.60
2018-07-20T01:12:10.419Z,20.60
2018-07-20T01:14:38.870Z,20.50
2018-07-20T01:19:35.460Z,20.50
2018-07-20T01:22:03.928Z,20.50
2018-07-20T01:24:32.348Z,20.40
2018-07-20T01:27:00.805Z,20.40
2018-07-20T01:29:29.231Z,20.40
2018-07-20T01:31:57.683Z,20.40
2018-07-20T01:34:26.283Z,20.30
2018-07-20T01:36:54.787Z,20.30
2018-07-20T01:41:51.391Z,20.30
2018-07-20T01:44:19.880Z,20.20
2018-07-20T01:46:48.335Z,20.20
2018-07-20T01:49:16.787Z,20.20
2018-07-20T01:54:13.339Z,20.10
2018-07-20T01:59:09.900Z,20.00
2018-07-20T02:01:38.456Z,20.00
2018-07-20T02:04:07.132Z,19.90
2018-07-20T02:06:35.589Z,19.90
2018-07-20T02:09:05.916Z,19.90
2018-07-20T02:11:34.367Z,19.80
2018-07-20T02:14:02.788Z,19.80
2018-07-20T02:16:31.232Z,19.80
2018-07-20T02:18:59.668Z,19.80
2018-07-20T02:21:28.145Z,19.70
2018-07-20T02:23:56.652Z,19.70
2018-07-20T02:26:25.092Z,19.60
2018-07-20T02:28:53.536Z,19.60
2018-07-20T02:31:22.231Z,19.50
2018-07-20T02:33:50.675Z,19.50
2018-07-20T02:38:47.288Z,19.50
2018-07-20T02:41:15.727Z,19.40
2018-07-20T02:43:44.156Z,19.40
2018-07-20T02:46:12.604Z,19.40
2018-07-20T02:48:41.023Z,19.40
2018-07-20T02:51:09.480Z,19.30
2018-07-20T02:53:37.948Z,19.30
2018-07-20T02:56:06.400Z,19.30
2018-07-20T03:01:02.960Z,19.20
2018-07-20T03:03:31.392Z,19.10
2018-07-20T03:05:59.843Z,19.10
2018-07-20T03:08:28.278Z,19.10
2018-07-20T03:13:24.868Z,19.00
2018-07-20T03:15:53.363Z,18.90
2018-07-20T03:18:21.812Z,18.90
2018-07-20T03:20:50.256Z,18.80
2018-07-20T03:23:18.709Z,18.80
2018-07-20T03:25:47.144Z,18.80
2018-07-20T03:30:43.692Z,18.70
2018-07-20T03:33:12.143Z,18.70
2018-07-20T03:35:40.592Z,18.70
2018-07-20T03:38:09.040Z,18.60
2018-07-20T03:43:05.607Z,18.60
2018-07-20T03:45:34.471Z,18.50
2018-07-20T03:48:02.959Z,18.50
2018-07-20T03:52:59.560Z,18.50
2018-07-20T03:55:28.004Z,18.50
2018-07-20T03:57:56.483Z,18.50
2018-07-20T04:00:24.935Z,18.50
2018-07-20T04:02:53.387Z,18.50
2018-07-20T04:05:21.822Z,18.50
2018-07-20T04:10:18.422Z,18.40
2018-07-20T04:12:46.866Z,18.50
2018-07-20T04:15:15.295Z,18.50
2018-07-20T04:17:44.843Z,18.50
2018-07-20T04:20:14.944Z,18.50
2018-07-20T04:22:43.652Z,18.50
2018-07-20T04:27:40.263Z,18.50
2018-07-20T04:30:11.168Z,18.50
2018-07-20T04:32:39.624Z,18.50
2018-07-20T04:35:08.707Z,18.50
2018-07-20T04:37:37.156Z,18.50
2018-07-20T04:40:05.971Z,18.50
2018-07-20T04:45:02.976Z,18.60
2018-07-20T04:47:31.435Z,18.70
2018-07-20T04:52:28.040Z,18.70
2018-07-20T04:54:56.548Z,18.70
2018-07-20T04:57:25.024Z,18.80
2018-07-20T04:59:53.456Z,18.80
2018-07-20T05:02:21.939Z,18.80
2018-07-20T05:04:50.488Z,18.90
2018-07-20T05:07:18.916Z,18.90
2018-07-20T05:09:47.455Z,19.00
2018-07-20T05:14:44.013Z,19.20
2018-07-20T05:17:12.479Z,19.20
2018-07-20T05:19:40.968Z,19.20
2018-07-20T05:24:37.572Z,19.40
2018-07-20T05:27:06.037Z,19.50
2018-07-20T05:29:34.488Z,19.50
2018-07-20T05:34:31.072Z,19.60
2018-07-20T05:36:59.508Z,19.70
2018-07-20T05:39:27.966Z,19.70
2018-07-20T05:41:56.400Z,19.80
2018-07-20T05:44:24.856Z,19.80
2018-07-20T05:46:53.280Z,19.90
2018-07-20T05:49:21.731Z,19.90
2018-07-20T05:54:18.419Z,20.00
2018-07-20T05:56:46.859Z,20.10
2018-07-20T05:59:15.311Z,20.00
2018-07-20T06:01:43.743Z,20.00
2018-07-20T06:04:12.160Z,20.00
2018-07-20T06:06:40.612Z,20.00
2018-07-20T06:09:11.009Z,20.00
2018-07-20T06:11:39.499Z,20.10
2018-07-20T06:16:36.584Z,20.10
2018-07-20T06:19:05.321Z,20.10
2018-07-20T06:21:33.703Z,20.20
2018-07-20T06:24:02.200Z,20.20
2018-07-20T06:26:30.652Z,20.20
2018-07-20T06:28:59.089Z,20.20
2018-07-20T06:31:27.571Z,20.20
2018-07-20T06:33:56.008Z,20.20
2018-07-20T06:36:24.471Z,20.30
2018-07-20T06:38:52.920Z,20.30
2018-07-20T06:41:21.367Z,20.30
2018-07-20T06:43:49.800Z,20.30
2018-07-20T06:46:18.271Z,20.30
2018-07-20T06:48:46.703Z,20.40
2018-07-20T06:51:15.152Z,20.50
2018-07-20T06:53:43.579Z,20.50
2018-07-20T06:58:40.127Z,20.60
2018-07-20T07:03:36.716Z,20.70
2018-07-20T07:06:05.224Z,20.80
2018-07-20T07:08:33.651Z,20.90
2018-07-20T07:11:02.124Z,20.90
2018-07-20T07:15:59.411Z,21.10
2018-07-20T07:20:56.337Z,21.30
2018-07-20T07:23:24.784Z,21.50
2018-07-20T07:25:53.333Z,21.60
2018-07-20T07:28:21.855Z,21.60
2018-07-20T07:30:50.327Z,21.70
2018-07-20T07:33:18.791Z,21.80
2018-07-20T07:35:47.277Z,21.80
2018-07-20T07:38:15.703Z,21.90
2018-07-20T07:40:46.251Z,21.90
2018-07-20T07:43:15.031Z,22.00
2018-07-20T07:45:43.528Z,22.10
2018-07-20T07:50:40.221Z,22.30
2018-07-20T07:55:37.248Z,22.50
2018-07-20T07:58:05.744Z,22.70
2018-07-20T08:03:02.879Z,23.00
2018-07-20T08:05:31.360Z,23.00
2018-07-20T08:07:59.936Z,23.20
2018-07-20T08:10:28.390Z,23.20
2018-07-20T08:12:56.879Z,23.40
2018-07-20T08:15:25.355Z,23.50
2018-07-20T08:17:53.830Z,23.70
2018-07-20T08:20:22.263Z,23.90
2018-07-20T08:22:50.733Z,23.90
2018-07-20T08:25:19.192Z,24.00
2018-07-20T08:27:47.799Z,24.10
2018-07-20T08:30:16.251Z,24.30
2018-07-20T08:32:44.843Z,24.40
2018-07-20T08:35:17.154Z,24.60
2018-07-20T08:37:45.760Z,24.80
2018-07-20T08:40:14.212Z,24.90
2018-07-20T08:42:42.720Z,25.00
2018-07-20T08:45:11.147Z,25.20
2018-07-20T08:47:39.612Z,25.20
2018-07-20T08:50:08.289Z,25.30
2018-07-20T08:52:36.761Z,25.40
2018-07-20T08:55:05.653Z,25.40
2018-07-20T08:57:34.236Z,25.40
2018-07-20T09:00:02.765Z,25.50
2018-07-20T09:02:31.139Z,25.50
2018-07-20T09:07:28.217Z,25.60
2018-07-20T09:09:57.687Z,25.70
2018-07-20T09:12:27.077Z,25.80
2018-07-20T09:14:56.423Z,25.80
2018-07-20T09:17:24.915Z,25.80
2018-07-20T09:22:21.617Z,25.90
2018-07-20T09:24:50.064Z,25.90
2018-07-20T09:29:46.630Z,26.10
2018-07-20T09:32:15.098Z,26.10
2018-07-20T09:37:11.664Z,26.40
2018-07-20T09:39:40.123Z,26.50
2018-07-20T09:42:08.592Z,26.60
2018-07-20T09:44:37.064Z,26.70
2018-07-20T09:47:05.596Z,26.90
2018-07-20T09:49:34.047Z,27.00
2018-07-20T09:52:02.491Z,27.10
2018-07-20T09:54:30.939Z,27.20
2018-07-20T09:56:59.367Z,27.40
2018-07-20T09:59:27.851Z,27.50
2018-07-20T10:01:56.300Z,27.60
2018-07-20T10:04:24.771Z,27.80
2018-07-20T10:06:53.227Z,28.00
2018-07-20T10:11:49.864Z,28.60
2018-07-20T10:14:18.295Z,28.70
2018-07-20T10:16:46.727Z,29.00
2018-07-20T10:19:15.200Z,29.20
2018-07-20T10:21:43.643Z,29.30
2018-07-20T10:24:12.084Z,29.60
2018-07-20T10:26:40.536Z,29.90
2018-07-20T10:29:08.999Z,30.20
2018-07-20T10:31:37.427Z,30.50
2018-07-20T10:34:05.919Z,30.70
2018-07-20T10:39:02.550Z,31.00
2018-07-20T10:41:31.034Z,31.20
2018-07-20T10:43:59.460Z,31.30
2018-07-20T10:46:27.908Z,31.50
2018-07-20T10:48:56.337Z,31.60
2018-07-20T10:51:24.800Z,31.70
2018-07-20T10:53:53.218Z,32.10
2018-07-20T10:56:21.663Z,32.40
2018-07-20T10:58:50.116Z,32.50
2018-07-20T11:01:18.575Z,32.60
2018-07-20T11:03:47.063Z,32.70
2018-07-20T11:06:15.497Z,33.00
2018-07-20T11:08:43.949Z,33.40
2018-07-20T11:11:12.371Z,33.40
2018-07-20T11:13:40.826Z,33.20
2018-07-20T11:16:09.276Z,33.40
2018-07-20T11:18:37.755Z,33.50
2018-07-20T11:21:06.208Z,33.80
2018-07-20T11:23:34.644Z,34.00
2018-07-20T11:26:03.095Z,34.30
2018-07-20T11:28:31.540Z,34.60
2018-07-20T11:30:59.987Z,34.80
2018-07-20T11:33:28.426Z,34.90
2018-07-20T11:35:57.054Z,35.00
2018-07-20T11:38:25.475Z,35.20
2018-07-20T11:40:53.900Z,35.20
2018-07-20T11:45:50.455Z,35.40
2018-07-20T11:48:18.928Z,35.70
2018-07-20T11:50:47.375Z,36.10
2018-07-20T11:53:15.830Z,36.40
2018-07-20T11:55:44.252Z,36.80
2018-07-20T11:58:12.688Z,37.30
2018-07-20T12:00:41.144Z,37.80
2018-07-20T12:05:37.695Z,38.30
2018-07-20T12:10:34.308Z,39.30
2018-07-20T12:13:02.727Z,39.50
2018-07-20T12:17:59.283Z,40.20
2018-07-20T12:22:55.876Z,41.60
2018-07-20T12:25:24.315Z,43.00
2018-07-20T12:30:20.888Z,45.00
2018-07-20T12:32:49.303Z,45.30
2018-07-20T12:35:17.787Z,45.90
2018-07-20T12:37:46.216Z,46.80
2018-07-20T12:42:42.804Z,48.10
2018-07-20T12:45:11.267Z,48.90
2018-07-20T12:47:39.701Z,49.70
2018-07-20T12:50:08.162Z,50.80
2018-07-20T12:52:36.615Z,51.60
2018-07-20T12:55:05.099Z,52.10
2018-07-20T12:57:33.559Z,52.90
2018-07-20T13:02:30.148Z,52.80
2018-07-20T13:04:58.597Z,52.50
2018-07-20T13:07:27.059Z,52.70
2018-07-20T13:09:55.491Z,53.00
2018-07-20T13:12:23.982Z,53.60
2018-07-20T13:14:52.383Z,53.70
2018-07-20T13:17:20.807Z,54.00
2018-07-20T13:19:49.271Z,54.00
2018-07-20T13:22:17.708Z,53.20
2018-07-20T13:24:46.162Z,52.40
2018-07-20T13:27:14.635Z,52.30
2018-07-20T13:32:11.247Z,52.00
2018-07-20T13:34:39.699Z,52.30
2018-07-20T13:37:08.151Z,52.20
2018-07-20T13:42:04.721Z,52.40
2018-07-20T13:44:33.215Z,51.60
2018-07-20T13:47:01.676Z,51.40
2018-07-20T13:49:30.121Z,51.40
2018-07-20T13:51:58.615Z,50.10
2018-07-20T13:54:27.073Z,49.70
2018-07-20T13:56:55.571Z,49.30
2018-07-20T13:59:24.012Z,47.60
2018-07-20T14:01:52.482Z,45.60
2018-07-20T14:04:21.043Z,44.60
2018-07-20T14:09:17.624Z,42.20
2018-07-20T14:11:46.068Z,41.50
2018-07-20T14:16:42.686Z,40.50
2018-07-20T14:19:11.110Z,40.00
2018-07-20T14:24:07.672Z,38.60
2018-07-20T14:26:36.190Z,38.20
2018-07-20T14:29:04.648Z,37.80
2018-07-20T14:31:33.116Z,37.60
2018-07-20T14:34:01.603Z,37.30
2018-07-20T14:36:30.072Z,37.00
2018-07-20T14:38:58.576Z,37.00
2018-07-20T14:41:27.000Z,36.90
2018-07-20T14:43:55.482Z,36.50
2018-07-20T14:46:23.931Z,36.50
2018-07-20T14:48:52.379Z,36.50
2018-07-20T14:51:20.831Z,36.70
2018-07-20T14:53:49.292Z,36.90
2018-07-20T14:56:17.727Z,36.60
2018-07-20T15:01:14.323Z,36.60
2018-07-20T15:03:42.771Z,36.60
2018-07-20T15:06:11.199Z,36.60
2018-07-20T15:08:39.666Z,36.70
2018-07-20T15:11:08.108Z,36.90
2018-07-20T15:13:36.548Z,37.10
2018-07-20T15:16:05.038Z,37.10
2018-07-20T15:18:33.579Z,37.10
2018-07-20T15:21:02.040Z,36.80
2018-07-20T15:23:30.539Z,36.20
2018-07-20T15:25:58.947Z,36.30
2018-07-20T15:28:27.408Z,36.50
2018-07-20T15:30:55.843Z,36.70
2018-07-20T15:35:52.424Z,36.80
2018-07-20T15:38:20.877Z,36.90
2018-07-20T15:40:49.323Z,37.00
2018-07-20T15:43:17.816Z,37.10
2018-07-20T15:45:52.037Z,37.10
2018-07-20T15:48:14.747Z,37.20
2018-07-20T15:50:43.207Z,37.20
2018-07-20T15:53:38.180Z,37.20
2018-07-20T15:55:40.124Z,37.20
2018-07-20T15:58:08.563Z,37.00
2018-07-20T16:00:37.008Z,36.90
2018-07-20T16:03:05.447Z,36.90
2018-07-20T16:05:33.923Z,36.90
2018-07-20T16:08:02.375Z,37.00
2018-07-20T16:10:30.819Z,37.00
2018-07-20T16:12:59.256Z,36.90
2018-07-20T16:15:27.715Z,36.80
2018-07-20T16:17:56.140Z,36.80
2018-07-20T16:20:24.591Z,36.70
2018-07-20T16:22:53.028Z,36.70
2018-07-20T16:25:21.500Z,36.70
2018-07-20T16:27:49.963Z,36.70
2018-07-20T16:30:18.487Z,36.50
2018-07-20T16:32:46.932Z,36.40
2018-07-20T16:35:15.408Z,36.40
2018-07-20T16:37:43.836Z,36.20
2018-07-20T16:42:40.435Z,36.10
2018-07-20T16:45:08.879Z,36.00
2018-07-20T16:47:37.340Z,36.00
2018-07-20T16:50:05.812Z,35.80
2018-07-20T16:52:34.240Z,35.70
2018-07-20T16:55:02.713Z,35.60
2018-07-20T16:57:31.163Z,35.30
2018-07-20T16:59:59.596Z,34.90
2018-07-20T17:02:28.028Z,34.60
2018-07-20T17:07:24.620Z,33.90
2018-07-20T17:09:53.079Z,33.60
2018-07-20T17:12:21.520Z,33.40
2018-07-20T17:14:49.985Z,33.40
2018-07-20T17:17:18.418Z,33.30
2018-07-20T17:19:46.847Z,33.20
2018-07-20T17:22:15.280Z,33.20
2018-07-20T17:24:43.747Z,33.10
2018-07-20T17:27:12.191Z,33.00
2018-07-20T17:29:40.637Z,32.80
2018-07-20T17:32:09.112Z,32.70
2018-07-20T17:34:37.543Z,32.60
2018-07-20T17:37:06.030Z,32.50
2018-07-20T17:39:34.456Z,32.40
2018-07-20T17:42:02.908Z,32.40
2018-07-20T17:44:32.191Z,32.40
2018-07-20T17:47:00.684Z,32.30
2018-07-20T17:49:29.159Z,32.20
2018-07-20T17:51:57.595Z,32.10
2018-07-20T17:54:26.027Z,32.00
2018-07-20T17:59:22.708Z,32.00
2018-07-20T18:01:51.168Z,31.90
2018-07-20T18:06:47.739Z,31.80
2018-07-20T18:09:16.179Z,31.80
2018-07-20T18:11:44.674Z,31.60
2018-07-20T18:14:13.106Z,31.60
2018-07-20T18:16:41.580Z,31.50
2018-07-20T18:19:10.020Z,31.40
2018-07-20T18:21:38.495Z,31.30
2018-07-20T18:24:06.968Z,31.20
2018-07-20T18:26:35.427Z,31.20
2018-07-20T18:29:03.867Z,31.10
2018-07-20T18:34:00.508Z,31.00
2018-07-20T18:36:28.916Z,30.80
2018-07-20T18:38:57.415Z,30.80
2018-07-20T18:41:25.866Z,30.70
2018-07-20T18:43:54.291Z,30.60
2018-07-20T18:46:22.760Z,30.60
2018-07-20T18:48:51.175Z,30.50
2018-07-20T18:51:19.704Z,30.50
2018-07-20T18:53:48.138Z,30.40
2018-07-20T18:56:16.600Z,30.30
2018-07-20T18:58:45.012Z,30.20
2018-07-20T19:01:13.430Z,30.20
2018-07-20T19:03:41.887Z,30.10
2018-07-20T19:08:38.465Z,30.00
2018-07-20T19:11:06.999Z,29.90
2018-07-20T19:13:35.480Z,29.80
2018-07-20T19:16:03.943Z,29.70
2018-07-20T19:18:32.393Z,29.70
2018-07-20T19:21:00.848Z,29.60
2018-07-20T19:23:29.343Z,29.60
2018-07-20T19:25:57.775Z,29.50
2018-07-20T19:28:26.243Z,29.50
2018-07-20T19:30:54.695Z,29.40
2018-07-20T19:33:23.160Z,29.30
2018-07-20T19:35:51.583Z,29.30
2018-07-20T19:38:20.036Z,29.20
2018-07-20T19:40:48.489Z,29.20
2018-07-20T19:45:45.067Z,29.00
2018-07-20T19:48:13.576Z,29.00
2018-07-20T19:50:42.042Z,28.90
2018-07-20T19:53:10.500Z,28.80
2018-07-20T19:55:38.947Z,28.80
2018-07-20T19:58:07.440Z,28.70
2018-07-20T20:00:35.884Z,28.60
2018-07-20T20:03:04.347Z,28.50
2018-07-20T20:05:32.785Z,28.50
2018-07-20T20:08:01.264Z,28.40
2018-07-20T20:10:29.697Z,28.30
2018-07-20T20:12:58.175Z,28.30
2018-07-20T20:15:26.610Z,28.20
2018-07-20T20:17:55.080Z,28.20
2018-07-20T20:20:23.530Z,28.10
2018-07-20T20:22:51.951Z,28.10
2018-07-20T20:25:20.411Z,28.10
2018-07-20T20:27:48.856Z,28.00
2018-07-20T20:30:17.327Z,27.90
2018-07-20T20:32:45.791Z,27.90
2018-07-20T20:37:42.367Z,27.80
2018-07-20T20:40:10.815Z,27.80
2018-07-20T20:42:39.239Z,27.80
2018-07-20T20:45:08.316Z,27.70
2018-07-20T20:47:36.975Z,27.70
2018-07-20T20:50:06.032Z,27.70
2018-07-20T20:52:34.511Z,27.70
2018-07-20T20:55:02.992Z,27.60
2018-07-20T20:57:31.419Z,27.60
2018-07-20T20:59:59.882Z,27.60
2018-07-20T21:02:28.307Z,27.60
2018-07-20T21:04:56.759Z,27.60
2018-07-20T21:07:25.178Z,27.50
2018-07-20T21:09:53.631Z,27.50
2018-07-20T21:14:50.388Z,27.50
2018-07-20T21:17:18.849Z,27.50
2018-07-20T21:19:47.396Z,27.40
2018-07-20T21:22:15.852Z,27.40
2018-07-20T21:24:44.311Z,27.40
2018-07-20T21:29:40.904Z,27.30
2018-07-20T21:32:09.348Z,27.30
2018-07-20T21:37:05.938Z,27.10
2018-07-20T21:39:34.405Z,27.10
2018-07-20T21:42:02.831Z,27.00
2018-07-20T21:44:31.291Z,27.00
2018-07-20T21:46:59.715Z,26.90
2018-07-20T21:49:28.192Z,26.80
2018-07-20T21:51:56.609Z,26.70
2018-07-20T21:54:25.167Z,26.60
2018-07-20T21:56:53.615Z,26.60
2018-07-20T21:59:22.107Z,26.40
2018-07-20T22:01:50.545Z,26.40
2018-07-20T22:04:18.983Z,26.40
2018-07-20T22:06:47.440Z,26.30
2018-07-20T22:09:15.867Z,26.30
2018-07-20T22:14:12.463Z,26.30
2018-07-20T22:16:40.935Z,26.20
2018-07-20T22:19:09.392Z,26.20
2018-07-20T22:21:37.843Z,26.10
2018-07-20T22:24:06.316Z,26.10
2018-07-20T22:26:34.787Z,26.00
2018-07-20T22:29:03.275Z,25.90
2018-07-20T22:31:31.748Z,25.80
2018-07-20T22:34:00.185Z,25.70
2018-07-20T22:36:28.672Z,25.70
2018-07-20T22:38:57.115Z,25.60
2018-07-20T22:43:53.761Z,25.60
2018-07-20T22:46:22.216Z,25.40
2018-07-20T22:48:50.661Z,25.40
2018-07-20T22:51:19.876Z,25.40
2018-07-20T22:53:48.355Z,25.40
2018-07-20T22:56:16.803Z,25.40
2018-07-20T23:01:13.384Z,25.30
2018-07-20T23:03:41.820Z,25.20
2018-07-20T23:06:10.296Z,25.20
2018-07-20T23:08:38.724Z,25.10
2018-07-20T23:11:07.708Z,25.00
2018-07-20T23:13:36.140Z,24.90
2018-07-20T23:16:04.631Z,24.80
2018-07-20T23:18:33.055Z,24.80
2018-07-20T23:21:01.568Z,24.70
2018-07-20T23:23:29.951Z,24.70
2018-07-20T23:25:59.316Z,24.70
2018-07-20T23:28:27.767Z,24.60
2018-07-20T23:30:56.204Z,24.60
2018-07-20T23:33:24.674Z,24.50
2018-07-20T23:35:53.118Z,24.40
2018-07-20T23:40:49.724Z,24.30
2018-07-20T23:43:18.196Z,24.30
2018-07-20T23:45:46.635Z,24.20
2018-07-20T23:48:15.092Z,24.20
2018-07-20T23:50:43.519Z,24.20
2018-07-20T23:53:11.988Z,24.10
2018-07-20T23:55:40.408Z,24.00
2018-07-20T23:58:08.895Z,24.00
